Time;durP1;ratioP1;P1;durP2;ratioP2;P2;SDS_P1;SDS_P2;PMS_P1;PMS_P2;Temp;Humidity;BMP_temperature;BMP_pressure;BME280_temperature;BME280_humidity;BME280_pressure;Samples;Min_cycle;Max_cycle;Signal;HPM_P1;HPM_P2
2024/01/14 00:04:30;;;;;;;44.37;24.73;;;-2.80;99.90;;;-2.03;89.81;98062.53;10402673;28;20226;-64
2024/01/14 00:09:33;;;;;;;40.00;21.33;;;-2.80;99.90;;;-2.02;89.71;98064.31;10402789;28;20248;-64
2024/01/14 00:14:37;;;;;;;36.73;20.70;;;-2.80;99.90;;;-1.89;89.54;98039.84;10405127;28;20218;-64
2024/01/14 00:19:41;;;;;;;40.10;21.73;;;-2.70;99.90;;;-2.03;90.54;98024.97;10401430;28;20233;-64
2024/01/14 00:24:44;;;;;;;38.17;21.30;;;-2.80;99.90;;;-1.90;88.83;98023.03;10459625;28;20228;-64
2024/01/14 00:29:49;;;;;;;40.10;21.47;;;-2.80;99.90;;;-1.98;88.51;98021.31;10463652;28;20330;-64
2024/01/14 00:34:53;;;;;;;35.63;19.17;;;-2.80;99.90;;;-2.00;89.73;98011.84;10464199;28;20727;-65
2024/01/14 00:39:56;;;;;;;39.57;21.30;;;-2.80;99.90;;;-2.07;90.66;98011.22;10464135;28;20233;-65
2024/01/14 00:45:00;;;;;;;35.63;20.53;;;-2.80;99.90;;;-1.99;90.11;97993.63;10462977;28;20231;-65
2024/01/14 00:50:04;;;;;;;36.23;21.90;;;-2.70;99.90;;;-2.02;90.88;97984.16;10468563;28;20262;-66
2024/01/14 00:55:08;;;;;;;37.93;22.17;;;-2.70;99.90;;;-2.01;90.29;97968.41;10469465;28;20998;-66
2024/01/14 01:00:14;;;;;;;39.17;20.07;;;-2.70;99.90;;;-1.85;88.51;97973.44;10466953;28;21030;-65
2024/01/14 01:05:17;;;;;;;35.67;19.83;;;-2.80;99.90;;;-1.71;87.45;97957.38;10430629;28;20248;-65
2024/01/14 01:10:20;;;;;;;34.77;19.87;;;-2.70;99.90;;;-1.93;88.78;97960.09;10405984;28;20687;-65
2024/01/14 01:15:25;;;;;;;36.53;20.03;;;-2.70;99.90;;;-1.73;87.58;97948.78;10417654;28;20227;-65
2024/01/14 01:20:28;;;;;;;35.60;19.50;;;-2.70;99.90;;;-1.79;87.97;97943.16;10414828;28;20230;-66
2024/01/14 01:25:31;;;;;;;38.23;21.40;;;-2.70;99.90;;;-1.88;87.92;97938.94;10450401;28;20234;-66
2024/01/14 01:30:36;;;;;;;35.70;21.20;;;-2.70;99.90;;;-2.02;89.27;97921.56;10457239;28;20225;-66
2024/01/14 01:35:39;;;;;;;37.57;19.20;;;-2.70;99.90;;;-1.82;88.24;97922.06;10403621;28;20254;-66
2024/01/14 01:40:42;;;;;;;36.30;20.43;;;-2.70;99.90;;;-1.96;89.50;97914.69;10413352;28;20228;-66
2024/01/14 01:45:47;;;;;;;37.37;19.80;;;-2.70;99.90;;;-1.84;89.28;97907.59;10472931;28;20846;-66
2024/01/14 01:50:52;;;;;;;37.37;20.73;;;-2.70;99.90;;;-1.94;88.17;97899.84;10466726;28;20307;-65
2024/01/14 01:55:56;;;;;;;39.90;20.53;;;-2.70;99.90;;;-1.91;88.38;97901.06;10460824;28;20646;-66
2024/01/14 02:01:00;;;;;;;38.20;21.00;;;-2.70;99.90;;;-2.08;89.22;97895.91;10475782;28;20229;-65
2024/01/14 02:06:06;;;;;;;37.63;20.97;;;-2.70;99.90;;;-1.89;88.18;97884.59;10487284;28;20268;-66
2024/01/14 02:11:09;;;;;;;38.07;20.60;;;-2.70;99.90;;;-1.75;88.78;97875.09;10477104;28;20232;-65
2024/01/14 02:16:15;;;;;;;41.33;21.63;;;-2.70;99.90;;;-2.05;88.46;97864.53;10487752;28;20224;-65
2024/01/14 02:21:29;;;;;;;40.27;21.00;;;-2.70;99.90;;;-2.22;89.37;97863.50;10488149;28;20260;-65
2024/01/14 02:26:33;;;;;;;38.20;21.60;;;-2.80;99.90;;;-2.24;90.44;97867.47;10487879;28;20800;-65
2024/01/14 02:31:37;;;;;;;42.93;21.83;;;-2.90;99.90;;;-2.34;90.04;97864.00;10494255;28;20223;-65
2024/01/14 02:36:41;;;;;;;42.43;22.23;;;-2.90;99.90;;;-2.38;90.27;97856.88;10463146;28;20224;-65
2024/01/14 02:41:46;;;;;;;40.77;20.97;;;-3.00;99.90;;;-2.40;91.77;97859.97;10489139;28;20769;-65
2024/01/14 02:46:49;;;;;;;49.27;23.50;;;-3.00;99.90;;;-2.33;90.60;97845.72;10488980;28;20326;-65
2024/01/14 02:51:52;;;;;;;36.63;21.63;;;-3.00;99.90;;;-2.40;90.59;97838.31;10463067;28;20229;-65
2024/01/14 02:56:57;;;;;;;44.83;22.43;;;-3.00;99.90;;;-2.29;90.70;97842.84;10426456;28;20236;-65
2024/01/14 03:02:02;;;;;;;45.17;23.33;;;-2.90;99.90;;;-2.35;91.53;97841.28;10424303;28;20237;-66
2024/01/14 03:07:05;;;;;;;42.40;22.57;;;-3.00;99.90;;;-2.35;91.91;97842.16;10483637;28;20624;-66
2024/01/14 03:12:10;;;;;;;44.77;23.10;;;-2.90;99.90;;;-2.29;91.54;97832.84;10486270;28;20233;-64
2024/01/14 03:17:13;;;;;;;47.57;23.87;;;-2.90;99.90;;;-2.28;90.59;97829.59;10446635;28;21789;-65
2024/01/14 03:22:17;;;;;;;49.93;22.60;;;-2.90;99.90;;;-2.25;91.04;97833.16;10445016;28;20317;-65
2024/01/14 03:27:21;;;;;;;46.53;23.73;;;-2.90;99.90;;;-2.31;90.28;97820.88;10444254;28;20229;-64
2024/01/14 03:32:24;;;;;;;43.50;22.60;;;-2.90;99.90;;;-2.23;90.41;97827.59;10442324;28;20227;-64
2024/01/14 03:37:28;;;;;;;48.80;24.43;;;-2.80;99.90;;;-2.04;90.16;97830.38;10445874;28;20229;-65
2024/01/14 03:42:32;;;;;;;39.13;21.67;;;-2.80;99.90;;;-2.15;90.91;97825.88;10449901;28;20225;-65
2024/01/14 03:47:35;;;;;;;48.87;23.17;;;-2.80;99.90;;;-2.19;91.29;97819.66;10444753;28;20241;-65
2024/01/14 03:52:39;;;;;;;43.37;22.50;;;-2.80;99.90;;;-2.07;88.93;97830.06;10457913;28;20232;-66
2024/01/14 03:57:43;;;;;;;44.17;23.03;;;-2.80;99.90;;;-2.22;90.21;97833.47;10459146;28;20724;-64
2024/01/14 04:02:47;;;;;;;45.97;22.17;;;-2.80;99.90;;;-2.19;90.08;97833.78;10461192;28;20228;-65
2024/01/14 04:07:50;;;;;;;44.20;23.17;;;-2.90;99.90;;;-2.28;89.41;97837.09;10457805;28;20767;-64
2024/01/14 04:12:54;;;;;;;51.57;24.30;;;-2.90;99.90;;;-2.42;91.18;97844.78;10460742;28;20229;-65
2024/01/14 04:17:58;;;;;;;44.73;22.03;;;-3.00;99.90;;;-2.43;91.33;97840.50;10465345;28;20266;-66
2024/01/14 04:23:01;;;;;;;43.97;23.43;;;-3.00;99.90;;;-2.39;90.23;97845.09;10468620;28;20228;-64
2024/01/14 04:28:06;;;;;;;49.47;23.33;;;-3.00;99.90;;;-2.37;89.02;97842.75;10457571;28;20233;-65
2024/01/14 04:33:09;;;;;;;44.30;24.10;;;-3.00;99.90;;;-2.38;90.25;97848.47;10451072;28;20233;-65
2024/01/14 04:38:13;;;;;;;47.43;23.87;;;-3.00;99.90;;;-2.40;90.36;97850.84;10454265;28;20232;-65
2024/01/14 04:43:17;;;;;;;41.53;21.23;;;-3.00;99.90;;;-2.43;90.15;97843.00;10461725;28;20225;-66
2024/01/14 04:48:21;;;;;;;45.60;22.33;;;-3.10;99.90;;;-2.49;90.45;97847.31;10471425;28;20232;-65
2024/01/14 04:53:24;;;;;;;45.90;22.90;;;-3.10;99.90;;;-2.61;89.71;97851.91;10475715;28;20269;-65
2024/01/14 04:58:29;;;;;;;45.87;23.27;;;-3.10;99.90;;;-2.56;90.32;97849.91;10474564;28;20220;-65
2024/01/14 05:03:32;;;;;;;45.93;23.43;;;-3.10;99.90;;;-2.58;89.52;97847.25;10466091;28;20221;-65
2024/01/14 05:08:35;;;;;;;41.80;21.67;;;-3.20;99.90;;;-2.51;89.77;97843.81;10460300;28;20235;-65
2024/01/14 05:13:40;;;;;;;41.07;22.23;;;-3.10;99.90;;;-2.56;88.66;97838.28;10481248;28;20327;-65
2024/01/14 05:18:43;;;;;;;47.53;23.43;;;-3.10;99.90;;;-2.56;89.01;97839.91;10475655;28;20742;-65
2024/01/14 05:23:46;;;;;;;51.20;23.30;;;-3.10;99.90;;;-2.56;89.80;97834.91;10473553;28;20242;-65
2024/01/14 05:28:51;;;;;;;48.57;23.80;;;-3.10;99.90;;;-2.60;89.73;97832.81;10472268;28;20228;-65
2024/01/14 05:33:54;;;;;;;48.63;23.97;;;-3.20;99.90;;;-2.44;88.99;97841.22;10463750;28;20244;-65
2024/01/14 05:38:57;;;;;;;59.50;32.40;;;-3.10;99.90;;;-2.38;87.81;97836.84;10465817;28;20232;-64
2024/01/14 05:44:02;;;;;;;49.60;26.10;;;-3.00;99.90;;;-2.37;88.74;97833.63;10468639;28;20227;-65
2024/01/14 05:49:05;;;;;;;47.93;23.97;;;-3.00;99.90;;;-2.36;88.90;97824.50;10465020;28;20569;-65
2024/01/14 05:54:09;;;;;;;41.10;21.87;;;-3.00;99.90;;;-2.33;88.20;97819.81;10470358;28;20274;-66
2024/01/14 05:59:13;;;;;;;47.00;23.17;;;-3.10;99.90;;;-2.37;88.27;97823.63;10472244;28;20482;-65
2024/01/14 06:04:16;;;;;;;46.00;22.10;;;-3.00;99.90;;;-2.25;88.09;97818.13;10462572;28;20226;-65
2024/01/14 06:09:20;;;;;;;47.47;22.43;;;-3.00;99.90;;;-2.16;88.58;97824.09;10453963;28;20271;-65
2024/01/14 06:14:24;;;;;;;45.70;23.00;;;-3.00;99.90;;;-2.04;87.69;97823.75;10457085;28;20335;-65
2024/01/14 06:19:27;;;;;;;46.03;22.53;;;-2.90;99.90;;;-2.29;88.15;97827.84;10443309;28;20236;-64
2024/01/14 06:24:31;;;;;;;43.93;22.23;;;-3.00;99.90;;;-2.26;89.68;97827.28;10449442;28;20221;-66
2024/01/14 06:29:35;;;;;;;45.87;23.37;;;-3.00;99.90;;;-2.20;88.16;97814.47;10456255;28;21578;-65
2024/01/14 06:34:38;;;;;;;45.53;21.43;;;-2.90;99.90;;;-2.10;88.58;97809.72;10454587;28;20288;-65
2024/01/14 06:39:42;;;;;;;45.17;21.13;;;-2.90;99.90;;;-2.15;87.80;97800.81;10459098;28;20262;-65
2024/01/14 06:44:46;;;;;;;42.90;20.50;;;-2.90;99.90;;;-2.07;88.61;97798.41;10458896;28;20231;-64
2024/01/14 06:49:51;;;;;;;40.73;20.50;;;-2.90;99.90;;;-1.88;87.45;97786.16;10453086;28;20224;-64
2024/01/14 06:55:09;;;;;;;40.30;20.17;;;-2.80;99.90;;;-2.05;87.57;97783.53;10456083;28;20235;-65
2024/01/14 07:00:15;;;;;;;43.67;21.83;;;-2.90;99.90;;;-2.00;87.31;97779.91;10442089;28;20232;-65
2024/01/14 07:05:18;;;;;;;90.03;45.40;;;-2.90;99.90;;;-2.06;87.01;97761.72;10439333;28;20605;-65
2024/01/14 07:10:21;;;;;;;43.00;21.93;;;-2.90;99.90;;;-1.86;85.36;97751.25;10434148;28;20409;-64
2024/01/14 07:15:26;;;;;;;50.03;23.97;;;-2.80;99.90;;;-2.04;86.26;97752.75;10443209;28;20228;-64
2024/01/14 07:20:29;;;;;;;36.80;19.23;;;-2.90;99.90;;;-1.98;84.69;97755.00;10437020;28;20221;-65
2024/01/14 07:25:32;;;;;;;47.13;21.60;;;-2.90;99.90;;;-2.12;86.28;97747.00;10440056;28;20232;-64
2024/01/14 07:30:37;;;;;;;41.53;21.07;;;-2.90;99.90;;;-2.15;85.89;97741.63;10439544;28;20235;-65
2024/01/14 07:35:40;;;;;;;86.77;38.73;;;-2.90;99.90;;;-2.16;87.65;97739.00;10445377;28;20732;-65
2024/01/14 07:40:44;;;;;;;59.00;28.33;;;-2.90;99.90;;;-2.12;87.73;97746.06;10437020;28;20232;-64
2024/01/14 07:45:49;;;;;;;47.33;24.63;;;-2.90;99.90;;;-1.94;85.74;97747.09;10445505;28;20705;-64
2024/01/14 07:50:52;;;;;;;47.87;22.83;;;-2.80;99.90;;;-1.82;85.38;97735.81;10442081;28;20617;-65
2024/01/14 07:55:56;;;;;;;47.57;22.37;;;-2.80;99.90;;;-1.89;85.10;97723.38;10460038;28;20224;-66
2024/01/14 08:01:01;;;;;;;42.77;21.63;;;-2.70;99.90;;;-1.92;86.43;97720.56;10462441;28;20228;-65
2024/01/14 08:06:06;;;;;;;46.03;22.63;;;-2.70;99.90;;;-1.93;86.13;97699.66;10449081;28;20236;-65
2024/01/14 08:11:09;;;;;;;54.13;23.80;;;-2.70;99.90;;;-1.83;85.38;97714.91;10457733;28;20237;-65
2024/01/14 08:16:14;;;;;;;50.83;23.43;;;-2.60;99.90;;;-1.89;85.13;97696.75;10460861;28;20231;-64
2024/01/14 08:21:17;;;;;;;49.83;23.77;;;-2.60;99.90;;;-1.79;84.96;97692.66;10454107;28;21191;-65
2024/01/14 08:26:21;;;;;;;50.80;23.43;;;-2.50;99.90;;;-1.58;83.21;97697.31;10455985;28;20228;-66
2024/01/14 08:31:25;;;;;;;48.17;23.07;;;-2.60;99.90;;;-1.65;83.61;97698.34;10454176;28;20247;-66
2024/01/14 08:36:28;;;;;;;47.17;22.50;;;-2.60;99.90;;;-1.59;83.86;97703.94;10452655;28;21201;-66
2024/01/14 08:41:32;;;;;;;43.50;22.03;;;-2.40;99.90;;;-1.60;83.37;97693.78;10451737;28;20804;-65
2024/01/14 08:46:40;;;;;;;49.83;23.70;;;-2.50;99.90;;;-1.70;83.25;97694.47;10451351;28;20220;-66
2024/01/14 08:51:43;;;;;;;49.00;23.57;;;-2.50;99.90;;;-1.61;82.50;97685.38;10464066;28;20622;-67
2024/01/14 08:56:46;;;;;;;46.87;23.57;;;-2.50;99.90;;;-1.49;82.24;97690.72;10470333;28;20220;-66
2024/01/14 09:01:51;;;;;;;44.33;24.70;;;-2.40;99.90;;;-1.62;83.83;97691.13;10459192;28;20232;-66
2024/01/14 09:06:54;;;;;;;44.93;25.23;;;-2.50;99.90;;;-1.50;82.70;97688.94;10451846;28;20810;-67
2024/01/14 09:11:57;;;;;;;42.50;23.10;;;-2.30;99.90;;;-1.28;81.17;97691.09;10440204;28;21657;-68
2024/01/14 09:17:02;;;;;;;44.80;23.97;;;-1.80;99.90;;;-1.45;82.66;97687.81;10443472;28;20614;-68
2024/01/14 09:22:05;;;;;;;44.07;24.27;;;-2.10;99.90;;;-1.40;81.85;97686.66;10444504;28;20228;-65
2024/01/14 09:27:08;;;;;;;42.50;22.87;;;-2.30;99.90;;;-1.34;82.10;97691.38;10446288;28;20332;-66
2024/01/14 09:32:13;;;;;;;49.40;24.63;;;-2.20;99.90;;;-1.53;82.99;97683.63;10453196;28;20236;-66
2024/01/14 09:37:16;;;;;;;52.47;26.63;;;-2.30;99.90;;;-1.41;81.32;97679.84;10448461;28;20232;-67
2024/01/14 09:42:27;;;;;;;54.50;27.10;;;-2.10;99.90;;;-1.39;81.72;97677.50;10453500;28;21590;-67
2024/01/14 09:47:33;;;;;;;50.70;25.27;;;-2.30;99.90;;;-1.38;81.64;97671.75;10453300;28;20247;-67
2024/01/14 09:52:41;;;;;;;47.27;25.57;;;-2.30;99.90;;;-1.33;81.54;97662.19;10448161;28;22370;-66
2024/01/14 09:57:49;;;;;;;51.57;26.90;;;-2.20;99.90;;;-1.13;81.47;97657.50;10459688;28;20220;-66
2024/01/14 10:02:56;;;;;;;51.50;26.23;;;-2.00;99.90;;;-0.77;80.53;97641.75;10456447;28;20224;-68
2024/01/14 10:07:59;;;;;;;48.67;26.37;;;-1.60;99.90;;;-0.53;78.78;97624.03;10459743;28;20256;-66
2024/01/14 10:13:04;;;;;;;50.73;26.77;;;-1.30;99.90;;;-0.45;79.87;97624.75;10456734;28;20244;-65
2024/01/14 10:18:08;;;;;;;50.63;27.70;;;-1.40;99.90;;;-0.28;79.82;97603.75;10453634;28;20611;-64
2024/01/14 10:23:12;;;;;;;50.07;27.60;;;-1.10;99.90;;;-0.04;77.61;97590.09;10407177;28;20235;-66
2024/01/14 10:28:15;;;;;;;48.87;27.70;;;-0.90;99.90;;;-0.03;78.30;97587.72;10407443;28;20222;-67
2024/01/14 10:33:20;;;;;;;49.07;27.20;;;-0.80;99.90;;;0.24;76.95;97573.41;10445234;28;20234;-66
2024/01/14 10:38:26;;;;;;;48.27;28.10;;;-0.70;99.90;;;0.18;77.30;97560.28;10464841;28;20272;-66
2024/01/14 10:43:37;;;;;;;49.87;27.37;;;-0.80;99.90;;;0.41;75.30;97547.31;10542492;27;21677;-64
2024/01/14 10:48:42;;;;;;;48.60;27.67;;;-0.60;99.90;;;0.26;75.94;97541.78;10488547;28;20232;-66
2024/01/14 10:53:58;;;;;;;47.37;27.57;;;-0.60;99.90;;;0.43;75.21;97538.28;10501599;27;20230;-67
2024/01/14 10:59:05;;;;;;;50.53;28.80;;;-0.60;99.90;;;0.48;75.71;97541.19;10482122;27;20357;-65
2024/01/14 11:04:09;;;;;;;47.73;27.10;;;-0.60;99.90;;;0.24;75.56;97528.19;10507040;28;20237;-66
2024/01/14 11:09:12;;;;;;;49.70;29.10;;;-0.70;99.90;;;0.28;76.18;97520.16;10495415;28;20223;-66
2024/01/14 11:14:22;;;;;;;51.57;27.07;;;-0.60;99.90;;;0.21;76.61;97502.78;10476120;28;20238;-66
2024/01/14 11:19:30;;;;;;;47.30;26.93;;;-0.70;99.90;;;0.18;75.95;97485.78;10498291;28;20234;-65
2024/01/14 11:24:40;;;;;;;46.23;27.13;;;-0.60;99.90;;;0.02;76.98;97481.75;10479632;28;20318;-66
2024/01/14 11:29:44;;;;;;;52.47;28.00;;;-0.70;99.90;;;0.22;76.93;97474.38;10485825;28;20232;-65
2024/01/14 11:34:59;;;;;;;49.53;27.73;;;-0.60;99.90;;;0.31;76.29;97460.13;10468287;28;20746;-66
2024/01/14 11:40:27;;;;;;;49.37;26.90;;;-0.60;99.90;;;0.41;76.58;97447.63;10481590;27;20298;-66
2024/01/14 11:45:39;;;;;;;49.10;27.03;;;-0.30;99.90;;;0.57;75.58;97424.75;10471940;28;20228;-65
2024/01/14 11:50:42;;;;;;;46.17;27.13;;;-0.20;99.90;;;0.51;76.10;97411.63;10476651;28;20227;-65
2024/01/14 11:55:46;;;;;;;45.23;26.47;;;-0.20;99.90;;;0.93;73.99;97402.66;10460591;28;20228;-65
2024/01/14 12:00:52;;;;;;;45.93;26.60;;;0.00;99.90;;;0.72;74.88;97390.00;10469634;28;20227;-66
2024/01/14 12:06:03;;;;;;;50.83;25.70;;;-0.20;99.90;;;0.63;74.94;97376.59;10455425;28;20238;-65
2024/01/14 12:11:06;;;;;;;45.60;26.00;;;-0.10;99.90;;;0.64;74.57;97368.34;10432096;28;20230;-66
2024/01/14 12:16:11;;;;;;;44.23;26.03;;;0.00;99.90;;;0.51;74.97;97353.78;10476000;28;20255;-65
2024/01/14 12:21:17;;;;;;;48.23;26.10;;;0.00;99.90;;;0.84;74.63;97339.88;10459729;28;20237;-65
2024/01/14 12:26:34;;;;;;;43.37;25.90;;;0.20;99.90;;;0.66;75.25;97324.97;10457759;28;20227;-66
2024/01/14 12:31:38;;;;;;;45.70;25.67;;;0.10;99.90;;;0.97;74.40;97309.06;10471267;28;20229;-66
2024/01/14 12:36:58;;;;;;;44.60;24.83;;;0.10;99.90;;;1.01;74.01;97301.06;10460929;28;20223;-65
2024/01/14 12:42:02;;;;;;;46.13;26.83;;;0.20;99.90;;;1.11;74.32;97288.47;10435601;28;20389;-66
2024/01/14 12:47:07;;;;;;;48.70;27.13;;;0.30;99.90;;;1.14;73.43;97276.13;10448461;28;20235;-65
2024/01/14 12:52:11;;;;;;;43.77;25.50;;;0.30;99.90;;;1.33;72.95;97264.34;10463284;28;20804;-65
2024/01/14 12:57:14;;;;;;;40.60;25.20;;;0.50;99.90;;;1.12;73.23;97262.56;10471054;28;20225;-65
2024/01/14 13:02:27;;;;;;;46.80;26.07;;;0.40;99.90;;;1.23;71.88;97250.84;10447066;28;20649;-67
2024/01/14 13:07:30;;;;;;;44.13;24.43;;;0.40;99.90;;;1.22;70.96;97234.00;10483058;28;20224;-66
2024/01/14 13:12:33;;;;;;;38.83;23.77;;;0.40;99.90;;;1.30;71.61;97228.84;10459190;28;20235;-66
2024/01/14 13:17:42;;;;;;;40.83;25.63;;;0.50;99.90;;;1.22;72.06;97222.28;10480647;28;20225;-66
2024/01/14 13:22:46;;;;;;;43.67;25.40;;;0.50;99.90;;;1.43;71.02;97207.19;10463840;28;20234;-66
2024/01/14 13:27:51;;;;;;;41.40;24.80;;;0.80;99.90;;;1.63;71.15;97193.66;10449666;28;20239;-65
2024/01/14 13:32:56;;;;;;;44.00;25.37;;;0.70;99.90;;;1.49;71.66;97190.06;10455733;28;20226;-66
2024/01/14 13:37:59;;;;;;;40.67;24.60;;;0.80;99.90;;;1.73;69.67;97181.94;10471689;28;20345;-66
2024/01/14 13:43:03;;;;;;;39.43;24.57;;;1.00;99.90;;;1.55;71.70;97177.97;10477392;28;20232;-65
2024/01/14 13:48:08;;;;;;;37.80;23.73;;;0.80;99.90;;;1.78;68.98;97165.56;10464655;28;20742;-65
2024/01/14 13:53:11;;;;;;;39.20;23.90;;;1.00;99.90;;;1.65;69.45;97160.31;10478081;28;20224;-65
2024/01/14 13:58:14;;;;;;;40.07;23.10;;;1.00;99.90;;;1.71;69.86;97159.91;10462302;28;20299;-65
2024/01/14 14:03:19;;;;;;;37.10;23.97;;;1.00;99.90;;;1.84;68.81;97154.22;10461705;28;20223;-64
2024/01/14 14:08:22;;;;;;;40.20;24.43;;;1.00;99.90;;;1.77;69.70;97148.69;10437734;28;22563;-65
2024/01/14 14:13:26;;;;;;;38.67;21.70;;;0.90;99.90;;;1.66;68.34;97138.50;10447796;28;20235;-65
2024/01/14 14:18:30;;;;;;;35.30;22.47;;;0.90;99.90;;;1.70;68.74;97141.41;10461504;28;20733;-65
2024/01/14 14:23:34;;;;;;;35.20;22.70;;;1.00;99.90;;;1.62;69.13;97134.88;10438820;28;20238;-65
2024/01/14 14:28:39;;;;;;;35.73;22.20;;;0.90;99.90;;;1.62;69.87;97116.38;10463525;28;20324;-65
2024/01/14 14:33:44;;;;;;;37.43;23.30;;;0.90;99.90;;;1.63;69.40;97119.03;10448708;28;20222;-65
2024/01/14 14:38:48;;;;;;;37.50;23.63;;;0.80;99.90;;;1.60;69.74;97107.81;10468553;28;21012;-65
2024/01/14 14:43:51;;;;;;;54.37;30.60;;;0.80;99.90;;;1.45;70.88;97092.38;10452657;28;20259;-65
2024/01/14 14:48:56;;;;;;;50.13;31.33;;;0.70;99.90;;;1.38;71.33;97090.16;10477163;28;20238;-65
2024/01/14 14:54:00;;;;;;;43.00;27.37;;;0.60;99.90;;;1.29;71.83;97090.28;10462514;28;20235;-65
2024/01/14 14:59:04;;;;;;;41.93;25.53;;;0.50;99.90;;;1.23;72.75;97079.72;10438360;28;20341;-65
2024/01/14 15:04:09;;;;;;;40.40;24.67;;;0.40;99.90;;;1.10;73.33;97077.88;10455211;28;20238;-65
2024/01/14 15:09:16;;;;;;;38.67;26.17;;;0.30;99.90;;;0.97;73.64;97067.56;10458193;28;20349;-66
2024/01/14 15:14:19;;;;;;;42.27;25.43;;;0.20;99.90;;;0.88;74.81;97067.69;10472861;28;20233;-65
2024/01/14 15:19:24;;;;;;;39.83;24.93;;;0.10;99.90;;;0.77;75.25;97053.38;10462520;28;20782;-66
2024/01/14 15:24:29;;;;;;;39.83;26.60;;;0.00;99.90;;;0.65;75.74;97036.53;10463770;28;20311;-66
2024/01/14 15:29:34;;;;;;;45.43;27.63;;;-0.10;99.90;;;0.55;76.13;97038.19;10464480;28;20239;-66
2024/01/14 15:34:38;;;;;;;43.70;25.50;;;-0.20;99.90;;;0.40;76.62;97031.16;10450918;28;20229;-66
2024/01/14 15:39:42;;;;;;;37.07;23.30;;;-0.40;99.90;;;0.26;76.99;97028.25;10476393;28;20672;-66
2024/01/14 15:44:45;;;;;;;39.43;24.00;;;-0.50;99.90;;;0.11;77.46;97012.78;10460044;28;20257;-66
2024/01/14 15:49:49;;;;;;;40.17;24.83;;;-0.70;99.90;;;-0.04;78.26;97008.25;10463536;28;20237;-66
2024/01/14 15:54:52;;;;;;;47.57;26.60;;;-0.80;99.90;;;-0.19;78.46;97006.13;10460316;28;20259;-66
2024/01/14 15:59:55;;;;;;;46.97;27.00;;;-1.00;99.90;;;-0.21;78.31;97003.47;10474835;28;20229;-65
2024/01/14 16:05:00;;;;;;;43.53;23.70;;;-1.00;99.90;;;-0.35;79.37;97004.81;10473674;28;20332;-66
2024/01/14 16:10:04;;;;;;;34.00;21.63;;;-1.20;99.90;;;-0.53;79.73;97009.16;10478913;28;20238;-66
2024/01/14 16:15:08;;;;;;;57.10;31.00;;;-1.30;99.90;;;-0.73;81.96;97004.06;10469587;28;20240;-66
2024/01/14 16:20:13;;;;;;;71.73;36.93;;;-1.50;99.90;;;-0.84;81.67;96998.13;10465932;28;20238;-66
2024/01/14 16:25:17;;;;;;;61.60;33.97;;;-1.60;99.90;;;-0.97;82.29;96992.81;10459197;28;20325;-67
2024/01/14 16:30:20;;;;;;;63.77;33.97;;;-1.70;99.90;;;-1.13;82.36;96978.94;10473297;28;20226;-67
2024/01/14 16:35:24;;;;;;;48.70;32.43;;;-1.90;99.90;;;-1.23;83.57;96986.41;10476916;28;20729;-65
2024/01/14 16:40:31;;;;;;;45.80;28.97;;;-2.00;99.90;;;-1.34;83.20;96972.06;10440570;28;20233;-67
2024/01/14 16:45:35;;;;;;;46.27;29.30;;;-2.10;99.90;;;-1.44;84.12;96964.47;10470900;28;20224;-66
2024/01/14 16:50:40;;;;;;;43.53;26.80;;;-2.20;99.90;;;-1.53;83.86;96964.53;10470455;28;20224;-67
2024/01/14 16:55:47;;;;;;;45.50;27.63;;;-2.20;99.90;;;-1.50;84.28;96967.31;10472899;28;20742;-67
2024/01/14 17:00:50;;;;;;;48.30;29.00;;;-2.30;99.90;;;-1.68;84.54;96953.19;10458585;28;20225;-67
2024/01/14 17:06:15;;;;;;;41.90;26.00;;;-2.40;99.90;;;-1.74;84.24;96955.16;10454720;28;20262;-66
2024/01/14 17:11:21;;;;;;;47.47;28.90;;;-2.50;99.90;;;-1.84;85.59;96956.81;10470575;28;20366;-65
2024/01/14 17:16:26;;;;;;;51.07;28.70;;;-2.50;99.90;;;-1.51;85.72;96960.56;10438241;28;20293;-65
2024/01/14 17:21:31;;;;;;;51.60;29.80;;;-2.50;99.90;;;-1.25;84.91;96960.31;10465411;28;20697;-65
2024/01/14 17:26:34;;;;;;;47.40;28.20;;;-2.30;99.90;;;-1.47;83.78;96944.16;10464571;28;20231;-65
2024/01/14 17:31:37;;;;;;;48.00;29.83;;;-2.40;99.90;;;-1.66;84.24;96940.06;10433180;28;20229;-65
2024/01/14 17:36:42;;;;;;;48.10;28.83;;;-2.60;99.90;;;-1.94;85.04;96941.72;10464955;28;20232;-65
2024/01/14 17:41:45;;;;;;;119.47;53.20;;;-2.80;99.90;;;-2.15;86.71;96940.66;10461053;28;20260;-65
2024/01/14 17:46:49;;;;;;;53.27;30.53;;;-2.90;99.90;;;-2.23;86.33;96934.13;10451721;28;20228;-65
2024/01/14 17:51:54;;;;;;;74.10;38.93;;;-3.00;99.90;;;-2.33;87.50;96934.88;10448859;28;20754;-65
2024/01/14 17:56:57;;;;;;;54.53;30.53;;;-3.10;99.90;;;-2.32;86.96;96938.25;10450868;28;20219;-66
2024/01/14 18:02:00;;;;;;;40.90;24.47;;;-3.10;99.90;;;-2.44;88.24;96935.53;10464890;28;20248;-64
2024/01/14 18:07:05;;;;;;;48.73;29.73;;;-3.20;99.90;;;-2.55;89.08;96938.69;10430450;28;20220;-64
2024/01/14 18:12:08;;;;;;;45.60;29.17;;;-3.20;99.90;;;-2.65;89.22;96931.09;10463584;28;20281;-64
2024/01/14 18:17:11;;;;;;;52.87;30.43;;;-3.30;99.90;;;-2.62;89.19;96929.75;10470765;28;20228;-66
2024/01/14 18:22:16;;;;;;;38.67;24.87;;;-3.30;99.90;;;-2.41;89.63;96923.31;10458846;28;20220;-65
2024/01/14 18:27:19;;;;;;;49.77;28.67;;;-3.20;99.90;;;-2.38;88.78;96907.69;10468673;28;20229;-64
2024/01/14 18:32:23;;;;;;;42.03;22.87;;;-3.10;99.90;;;-2.20;89.34;96915.97;10449715;28;20239;-65
2024/01/14 18:37:27;;;;;;;41.57;23.67;;;-3.00;99.90;;;-2.18;87.70;96914.50;10479039;28;20653;-65
2024/01/14 18:42:30;;;;;;;37.80;22.90;;;-3.10;99.90;;;-2.43;89.34;96912.31;10472825;28;20517;-65
2024/01/14 18:47:34;;;;;;;45.37;27.60;;;-3.10;99.90;;;-2.36;89.08;96908.72;10470848;28;20231;-65
2024/01/14 18:52:38;;;;;;;49.10;30.77;;;-3.10;99.90;;;-2.32;90.73;96905.75;10457525;28;20293;-65
2024/01/14 18:57:41;;;;;;;43.63;28.20;;;-3.00;99.90;;;-2.20;91.19;96916.88;10438801;28;22012;-66
2024/01/14 19:02:46;;;;;;;57.13;32.33;;;-2.80;99.90;;;-2.07;90.64;96938.88;10437820;28;20285;-65
2024/01/14 19:07:51;;;;;;;46.97;29.53;;;-2.70;99.90;;;-2.10;90.74;96938.59;10427219;28;20228;-66
2024/01/14 19:12:57;;;;;;;51.83;31.23;;;-2.70;99.90;;;-2.03;92.03;96930.91;10467245;28;20235;-65
2024/01/14 19:18:01;;;;;;;54.23;30.90;;;-2.70;99.90;;;-1.94;90.67;96921.69;10469665;28;20742;-66
2024/01/14 19:23:05;;;;;;;79.73;40.87;;;-2.70;99.90;;;-1.90;89.00;96913.69;10416849;28;20739;-66
2024/01/14 19:28:08;;;;;;;59.70;32.73;;;-2.80;99.90;;;-2.02;89.99;96911.75;10439597;28;20891;-66
2024/01/14 19:33:12;;;;;;;59.77;32.13;;;-2.90;99.90;;;-2.29;90.22;96906.91;10447022;28;20715;-65
2024/01/14 19:38:17;;;;;;;57.80;31.13;;;-2.90;99.90;;;-2.12;89.95;96900.03;10452979;28;20521;-65
2024/01/14 19:43:20;;;;;;;56.57;29.63;;;-2.90;99.90;;;-2.01;91.24;96889.34;10444322;28;20235;-64
2024/01/14 19:48:24;;;;;;;59.23;30.23;;;-2.90;99.90;;;-2.32;91.40;96881.63;10441360;28;20239;-66
2024/01/14 19:53:29;;;;;;;60.07;29.33;;;-3.00;99.90;;;-2.41;92.42;96879.91;10471281;28;20235;-65
2024/01/14 19:58:32;;;;;;;65.03;30.70;;;-3.00;99.90;;;-2.29;91.44;96881.91;10466434;28;20228;-65
2024/01/14 20:03:35;;;;;;;72.17;32.03;;;-3.00;99.90;;;-2.11;91.34;96880.16;10467801;28;20597;-65
2024/01/14 20:08:40;;;;;;;65.70;32.73;;;-2.90;99.90;;;-2.15;91.53;96885.59;10441501;28;20327;-66
2024/01/14 20:13:43;;;;;;;68.63;32.33;;;-2.90;99.90;;;-2.09;92.84;96878.66;10443505;28;20221;-65
2024/01/14 20:18:46;;;;;;;65.53;30.67;;;-2.80;99.90;;;-2.07;91.66;96888.81;10462398;28;21918;-66
2024/01/14 20:23:51;;;;;;;64.43;31.53;;;-2.90;99.90;;;-2.13;92.66;96895.78;10443432;28;20244;-65
2024/01/14 20:28:54;;;;;;;72.93;36.57;;;-2.90;99.90;;;-2.31;92.58;96895.88;10467837;28;20693;-65
2024/01/14 20:33:57;;;;;;;75.43;33.93;;;-2.90;99.90;;;-2.33;92.81;96884.84;10468836;28;20228;-66
2024/01/14 20:39:02;;;;;;;63.87;32.47;;;-2.90;99.90;;;-2.42;93.37;96889.03;10443337;28;20594;-64
2024/01/14 20:44:06;;;;;;;70.10;33.03;;;-3.00;99.90;;;-2.30;93.28;96881.75;10468315;28;20239;-66
2024/01/14 20:49:09;;;;;;;71.83;31.70;;;-3.00;99.90;;;-2.37;92.90;96889.47;10450088;28;20231;-66